Time;durP1;ratioP1;P1;durP2;ratioP2;P2;SDS_P1;SDS_P2;PMS_P1;PMS_P2;Temp;Humidity;BMP_temperature;BMP_pressure;BME280_temperature;BME280_humidity;BME280_pressure;Samples;Min_cycle;Max_cycle;Signal;HPM_P1;HPM_P2
2022/08/13 00:02:00;;;;;;;13.32;9.95;;;;;;;22.05;61.32;100455.66;5055774;28;20471;-90
2022/08/13 00:04:30;;;;;;;13.18;10.25;;;;;;;22.06;61.42;100442.81;5052533;28;20029;-87
2022/08/13 00:07:08;;;;;;;12.27;10.35;;;;;;;22.01;61.03;100438.06;5051079;28;20037;-91
2022/08/13 00:09:43;;;;;;;12.35;10.32;;;;;;;22.02;61.49;100442.47;5049346;28;20075;-91
2022/08/13 00:12:57;;;;;;;14.07;10.30;;;;;;;22.03;61.58;100444.16;5046006;28;20566;-88
2022/08/13 00:15:27;;;;;;;13.10;10.40;;;;;;;22.01;61.39;100438.06;5013525;28;20053;-87
2022/08/13 00:17:56;;;;;;;13.68;10.07;;;;;;;22.06;61.29;100446.38;5033361;28;20044;-87
2022/08/13 00:20:24;;;;;;;15.98;10.80;;;;;;;22.06;61.71;100446.38;5037053;28;20471;-88
2022/08/13 00:22:49;;;;;;;14.98;10.48;;;;;;;21.97;61.59;100442.38;5038863;28;20043;-87
2022/08/13 00:25:16;;;;;;;14.27;10.25;;;;;;;21.88;61.65;100413.72;5036641;28;20393;-87
2022/08/13 00:27:47;;;;;;;11.50;10.10;;;;;;;22.05;61.46;100436.50;5030171;28;20557;-87
2022/08/13 00:30:33;;;;;;;14.90;10.25;;;;;;;22.02;61.94;100426.03;5054535;28;20132;-87
2022/08/13 00:33:22;;;;;;;13.93;10.60;;;;;;;21.95;61.96;100428.09;5052920;28;20025;-88
2022/08/13 00:35:50;;;;;;;12.95;11.02;;;;;;;21.96;62.29;100437.97;5031378;28;20072;-88
2022/08/13 00:38:28;;;;;;;16.55;10.10;;;;;;;22.00;62.29;100439.13;5040669;28;20557;-87
2022/08/13 00:40:57;;;;;;;18.05;11.05;;;;;;;21.94;62.75;100431.91;5050693;28;20040;-88
2022/08/13 00:43:25;;;;;;;13.57;10.77;;;;;;;21.84;62.54;100437.97;5044750;28;20067;-87
2022/08/13 00:45:56;;;;;;;14.95;10.85;;;;;;;21.82;62.81;100431.09;5052416;28;20079;-88
2022/08/13 00:48:42;;;;;;;14.70;11.00;;;;;;;21.74;63.04;100421.34;5037258;28;20039;-88
2022/08/13 00:51:09;;;;;;;13.02;10.00;;;;;;;21.78;63.11;100424.44;5055719;28;20029;-86
2022/08/13 00:53:37;;;;;;;12.27;10.13;;;;;;;21.79;62.98;100421.44;5038729;28;20496;-87
2022/08/13 00:56:03;;;;;;;13.30;10.57;;;;;;;21.82;63.08;100434.69;5057692;28;20574;-88
2022/08/13 00:58:33;;;;;;;15.05;10.43;;;;;;;21.83;63.05;100435.50;5055870;28;20115;-89
2022/08/13 01:01:00;;;;;;;12.70;10.52;;;;;;;21.77;63.36;100417.28;5038125;28;20457;-87
2022/08/13 01:03:27;;;;;;;20.30;10.82;;;;;;;21.83;63.42;100435.50;5027489;28;20066;-89
2022/08/13 01:05:57;;;;;;;17.33;10.98;;;;;;;21.73;63.35;100425.16;5006641;28;20519;-88
2022/08/13 01:08:24;;;;;;;13.68;10.85;;;;;;;21.77;63.50;100425.50;5022857;28;20511;-88
2022/08/13 01:10:49;;;;;;;17.17;11.05;;;;;;;21.73;63.70;100427.91;5039932;28;20131;-90
2022/08/13 01:13:19;;;;;;;15.93;11.25;;;;;;;21.70;64.10;100426.50;5016282;28;20505;-88
2022/08/13 01:15:47;;;;;;;13.63;10.65;;;;;;;21.66;63.87;100421.72;5033548;28;20033;-87
2022/08/13 01:18:17;;;;;;;14.38;10.70;;;;;;;21.71;63.76;100427.31;5047912;28;20025;-87
2022/08/13 01:20:58;;;;;;;14.02;10.88;;;;;;;21.57;64.16;100410.31;5044559;28;20029;-87
2022/08/13 01:23:23;;;;;;;16.23;10.63;;;;;;;21.65;63.92;100429.09;5050317;28;20037;-88
2022/08/13 01:25:50;;;;;;;12.82;10.98;;;;;;;21.64;63.89;100432.91;5017049;28;20159;-84
2022/08/13 01:28:18;;;;;;;15.07;10.88;;;;;;;21.61;63.90;100430.66;5052624;28;20029;-86
2022/08/13 01:30:47;;;;;;;12.88;10.88;;;;;;;21.60;63.93;100433.63;5033801;28;20029;-87
2022/08/13 01:33:16;;;;;;;13.35;10.68;;;;;;;21.56;64.15;100436.00;5019670;28;20048;-88
2022/08/13 01:35:41;;;;;;;21.27;11.05;;;;;;;21.57;63.78;100421.25;5052225;28;20413;-87
2022/08/13 01:38:08;;;;;;;16.83;10.98;;;;;;;21.54;63.96;100421.75;5045602;28;20028;-87
2022/08/13 01:40:34;;;;;;;14.45;10.70;;;;;;;21.50;64.09;100426.84;5024274;28;20032;-86
2022/08/13 01:43:03;;;;;;;15.48;11.05;;;;;;;21.50;63.91;100423.28;5035683;28;20029;-88
2022/08/13 01:45:29;;;;;;;16.25;11.00;;;;;;;21.48;64.28;100425.44;5048485;28;20119;-87
2022/08/13 01:50:39;;;;;;;14.02;10.88;;;;;;;21.52;64.32;100429.34;5025502;28;20036;-87
2022/08/13 01:53:12;;;;;;;16.45;10.65;;;;;;;21.49;64.46;100424.34;5039081;28;20108;-87
2022/08/13 01:56:03;;;;;;;15.65;11.18;;;;;;;21.53;64.42;100436.47;5032890;28;20064;-87
2022/08/13 01:58:29;;;;;;;13.55;11.20;;;;;;;21.39;64.69;100430.38;5036559;28;20033;-86
2022/08/13 02:01:00;;;;;;;15.95;11.30;;;;;;;21.34;65.10;100426.72;5026512;28;20536;-86
2022/08/13 02:03:26;;;;;;;15.57;10.98;;;;;;;21.29;64.97;100428.25;5037511;28;20180;-88
2022/08/13 02:05:51;;;;;;;17.33;11.10;;;;;;;21.39;65.00;100435.03;5051965;28;20120;-88
2022/08/13 02:08:23;;;;;;;13.07;10.85;;;;;;;21.44;65.14;100429.69;5042096;28;20421;-87
2022/08/13 02:10:52;;;;;;;14.13;11.43;;;;;;;21.48;64.95;100428.16;5010902;28;20041;-87
2022/08/13 02:13:24;;;;;;;17.77;11.30;;;;;;;21.43;64.96;100423.41;5029120;28;20053;-84
2022/08/13 02:15:50;;;;;;;12.82;10.52;;;;;;;21.51;65.00;100433.16;5019241;28;20033;-88
2022/08/13 02:18:18;;;;;;;16.73;11.00;;;;;;;21.50;64.92;100417.81;5030740;28;20042;-87
2022/08/13 02:20:45;;;;;;;12.95;10.82;;;;;;;21.41;65.25;100427.44;5033507;28;20102;-87
2022/08/13 02:23:16;;;;;;;14.82;11.75;;;;;;;21.39;65.31;100424.09;5028985;28;20469;-87
2022/08/13 02:25:45;;;;;;;15.52;11.23;;;;;;;21.40;65.26;100426.63;5028657;28;20053;-84
2022/08/13 02:28:15;;;;;;;15.05;11.73;;;;;;;21.32;65.33;100415.19;5030159;28;20048;-87
2022/08/13 02:30:43;;;;;;;12.93;10.93;;;;;;;21.35;65.53;100420.16;5000751;28;20041;-87
2022/08/13 02:33:09;;;;;;;12.48;11.10;;;;;;;21.33;65.48;100414.09;4994241;28;20050;-88
2022/08/13 02:35:38;;;;;;;15.48;11.40;;;;;;;21.37;65.17;100424.31;5012458;28;20052;-86
2022/08/13 02:38:04;;;;;;;17.13;10.75;;;;;;;21.41;65.22;100425.53;5014438;28;20040;-85
2022/08/13 02:43:17;;;;;;;17.90;11.77;;;;;;;21.33;65.48;100425.88;5015494;28;20136;-87
2022/08/13 02:45:46;;;;;;;14.00;11.50;;;;;;;21.37;65.48;100432.53;5010102;28;20056;-87
2022/08/13 02:48:17;;;;;;;15.25;11.32;;;;;;;21.20;65.74;100413.25;5028773;28;20041;-86
2022/08/13 02:50:45;;;;;;;14.82;11.55;;;;;;;21.34;65.75;100418.50;5006739;28;20467;-88
2022/08/13 02:53:17;;;;;;;14.95;11.60;;;;;;;21.32;65.66;100420.66;4983032;28;20034;-86
2022/08/13 02:55:44;;;;;;;17.50;11.20;;;;;;;21.16;66.10;100409.34;5028635;28;20482;-89
2022/08/13 02:58:10;;;;;;;15.05;11.15;;;;;;;21.18;66.52;100431.81;4995729;28;20412;-88
2022/08/13 03:00:37;;;;;;;14.75;12.20;;;;;;;21.06;66.70;100420.03;4998482;28;20033;-86
2022/08/13 03:03:05;;;;;;;17.25;11.68;;;;;;;21.18;66.67;100423.59;5016563;28;20102;-86
2022/08/13 03:05:31;;;;;;;12.48;11.18;;;;;;;21.01;66.78;100422.66;5000980;28;20051;-89
2022/08/13 03:08:04;;;;;;;14.77;11.20;;;;;;;21.00;67.21;100426.44;5031182;28;20026;-87
2022/08/13 03:10:30;;;;;;;15.25;11.32;;;;;;;21.08;67.22;100435.13;5007282;28;20046;-87
2022/08/13 03:13:04;;;;;;;14.10;11.10;;;;;;;21.08;67.27;100434.31;5005323;28;20045;-86
2022/08/13 03:15:31;;;;;;;14.35;11.90;;;;;;;21.13;67.23;100437.16;5025296;28;20025;-85
2022/08/13 03:17:57;;;;;;;16.55;11.95;;;;;;;21.14;67.35;100438.84;5028839;28;20034;-87
2022/08/13 03:20:25;;;;;;;16.88;12.15;;;;;;;21.16;66.94;100444.88;5025070;28;20434;-87
2022/08/13 03:22:54;;;;;;;13.82;11.50;;;;;;;21.23;66.98;100448.31;5019686;28;20057;-87
2022/08/13 03:25:20;;;;;;;14.48;11.55;;;;;;;21.15;67.11;100440.47;5016413;28;20029;-87
2022/08/13 03:27:46;;;;;;;16.95;11.68;;;;;;;21.16;66.79;100431.19;5043780;28;20081;-89
2022/08/13 03:30:17;;;;;;;14.40;11.90;;;;;;;21.23;66.91;100436.56;5022038;28;20033;-88
2022/08/13 03:32:45;;;;;;;14.32;10.88;;;;;;;21.19;67.08;100441.69;4983338;28;20022;-88
2022/08/13 03:35:21;;;;;;;13.95;11.68;;;;;;;21.14;67.42;100440.72;5019646;28;20065;-85
2022/08/13 03:37:53;;;;;;;14.57;11.93;;;;;;;21.15;67.39;100445.94;4987432;28;20049;-87
2022/08/13 03:40:23;;;;;;;18.70;11.82;;;;;;;21.13;67.60;100426.22;5021225;28;20454;-86
2022/08/13 03:42:48;;;;;;;16.45;12.10;;;;;;;21.25;67.13;100435.25;5036167;28;20037;-88
2022/08/13 03:45:19;;;;;;;15.60;11.70;;;;;;;21.24;67.38;100439.06;5002123;28;20030;-88
2022/08/13 03:47:45;;;;;;;17.10;12.35;;;;;;;21.20;67.29;100431.56;5048177;28;20049;-87
2022/08/13 03:50:14;;;;;;;15.25;11.98;;;;;;;21.02;67.13;100414.19;5023811;28;20536;-86
2022/08/13 03:52:41;;;;;;;15.10;12.43;;;;;;;21.11;67.40;100416.59;5035660;28;20037;-85
2022/08/13 03:55:11;;;;;;;15.18;11.90;;;;;;;21.32;67.12;100439.78;4988926;28;20064;-87
2022/08/13 03:57:41;;;;;;;15.13;11.27;;;;;;;21.38;66.85;100438.84;5009206;28;20067;-86
2022/08/13 04:00:11;;;;;;;13.60;11.02;;;;;;;21.39;66.84;100433.13;4998365;28;20036;-86
2022/08/13 04:02:40;;;;;;;14.07;11.55;;;;;;;21.29;67.02;100419.22;5039925;28;20048;-87
2022/08/13 04:05:16;;;;;;;16.10;11.98;;;;;;;21.28;67.24;100429.34;4995179;28;20042;-85
2022/08/13 04:07:43;;;;;;;15.00;12.18;;;;;;;21.33;67.37;100427.75;5024517;28;20460;-86
2022/08/13 04:10:11;;;;;;;14.55;11.93;;;;;;;21.38;67.17;100427.91;5013490;28;20397;-87
2022/08/13 04:12:38;;;;;;;14.80;12.20;;;;;;;21.40;67.15;100432.09;5032085;28;20025;-87
2022/08/13 04:15:09;;;;;;;15.75;12.90;;;;;;;21.36;67.48;100430.03;5032065;28;20029;-87
2022/08/13 04:17:40;;;;;;;17.45;13.00;;;;;;;21.42;67.02;100429.09;5043234;28;20474;-85
2022/08/13 04:20:23;;;;;;;20.23;12.77;;;;;;;21.45;66.93;100425.91;5036722;28;20391;-87
2022/08/13 04:22:52;;;;;;;14.88;11.80;;;;;;;21.59;66.72;100424.59;5034902;28;20059;-84
2022/08/13 04:25:19;;;;;;;16.02;11.93;;;;;;;21.73;66.01;100440.72;5045060;28;20037;-88
2022/08/13 04:27:50;;;;;;;16.33;12.07;;;;;;;21.49;66.00;100397.00;5042081;28;20041;-85
2022/08/13 04:30:16;;;;;;;14.55;11.75;;;;;;;21.68;66.06;100423.16;5043412;28;20029;-85
2022/08/13 04:32:48;;;;;;;14.85;11.68;;;;;;;21.89;65.33;100418.94;5036055;28;20133;-85
2022/08/13 04:35:16;;;;;;;15.98;11.57;;;;;;;21.93;64.99;100419.28;5044777;28;20093;-84
2022/08/13 04:37:45;;;;;;;15.88;12.10;;;;;;;22.01;65.32;100432.59;5050987;28;20042;-87
2022/08/13 04:40:12;;;;;;;15.65;11.95;;;;;;;22.07;65.05;100437.09;5038008;28;20025;-86
2022/08/13 04:42:53;;;;;;;16.95;11.95;;;;;;;22.19;64.30;100428.00;5040715;28;20029;-86
2022/08/13 04:45:21;;;;;;;15.05;11.40;;;;;;;22.23;64.52;100441.00;5044848;28;20025;-87
2022/08/13 04:47:48;;;;;;;13.43;11.65;;;;;;;22.36;63.82;100428.94;5037077;28;20036;-86
2022/08/13 04:50:14;;;;;;;15.30;12.20;;;;;;;22.43;63.66;100442.47;5051968;28;20037;-86
2022/08/13 04:52:40;;;;;;;14.30;11.82;;;;;;;22.55;63.46;100444.09;5038731;28;20046;-85
2022/08/13 04:55:11;;;;;;;15.45;12.35;;;;;;;22.85;62.33;100444.88;5015820;28;20041;-85
2022/08/13 04:57:43;;;;;;;13.48;11.50;;;;;;;23.12;61.34;100413.03;5035399;28;20033;-86
2022/08/13 05:00:09;;;;;;;13.90;10.95;;;;;;;23.54;60.53;100439.16;5035481;28;20037;-86
2022/08/13 05:02:39;;;;;;;17.35;11.98;;;;;;;23.78;59.57;100413.19;5004539;28;20091;-85
2022/08/13 05:05:06;;;;;;;16.60;11.52;;;;;;;24.01;58.45;100414.03;5026123;28;20497;-86
2022/08/13 05:07:31;;;;;;;14.73;10.93;;;;;;;24.31;57.77;100432.78;5041653;28;20057;-84
2022/08/13 05:09:58;;;;;;;13.70;11.00;;;;;;;24.44;57.24;100415.03;5061062;28;20064;-85
2022/08/13 05:12:24;;;;;;;13.57;11.02;;;;;;;24.56;57.16;100418.53;5024699;28;20029;-86
2022/08/13 05:14:50;;;;;;;13.35;11.18;;;;;;;24.94;56.82;100429.59;5022565;28;20048;-86
2022/08/13 05:17:17;;;;;;;18.25;11.10;;;;;;;25.21;55.98;100438.59;5040341;28;20030;-86
2022/08/13 05:19:45;;;;;;;12.90;10.88;;;;;;;25.48;54.51;100415.69;5023692;28;20037;-87
2022/08/13 05:22:11;;;;;;;14.18;11.38;;;;;;;25.62;54.32;100429.81;5014023;28;20061;-88
2022/08/13 05:24:37;;;;;;;12.45;10.52;;;;;;;25.92;53.10;100425.56;5025637;28;20041;-87
2022/08/13 05:27:05;;;;;;;17.02;11.00;;;;;;;25.99;53.15;100418.75;5035427;28;20449;-87
2022/08/13 05:29:30;;;;;;;13.98;11.50;;;;;;;26.00;53.28;100416.81;5039927;28;20033;-84
2022/08/13 05:31:56;;;;;;;19.08;10.32;;;;;;;26.28;52.60;100408.06;5032703;28;20047;-88
2022/08/13 05:34:28;;;;;;;14.30;10.88;;;;;;;26.23;51.93;100394.28;5008859;28;20044;-84
2022/08/13 05:36:54;;;;;;;13.73;10.82;;;;;;;26.60;51.70;100407.06;5038911;28;20037;-86
2022/08/13 05:39:20;;;;;;;15.93;11.00;;;;;;;26.67;51.26;100402.13;5022953;28;20034;-86
2022/08/13 05:41:47;;;;;;;15.40;11.20;;;;;;;26.83;50.94;100399.34;5031220;28;20482;-86
2022/08/13 05:44:14;;;;;;;13.68;10.93;;;;;;;26.72;51.06;100404.88;5017862;28;20037;-88
2022/08/13 05:46:41;;;;;;;15.27;10.57;;;;;;;26.72;51.50;100407.63;5023293;28;20041;-90
2022/08/13 05:49:07;;;;;;;13.18;11.00;;;;;;;26.78;51.36;100391.09;5042563;28;20044;-86
2022/08/13 05:51:32;;;;;;;15.48;10.60;;;;;;;26.99;50.62;100376.19;4997586;28;20047;-87
2022/08/13 05:53:59;;;;;;;13.60;11.10;;;;;;;27.22;50.49;100385.03;5036163;28;20029;-90
2022/08/13 05:56:37;;;;;;;13.50;11.27;;;;;;;27.33;49.65;100364.59;5016784;28;20029;-87
2022/08/13 05:59:04;;;;;;;17.23;11.27;;;;;;;27.74;48.80;100387.34;5024901;28;20033;-87
2022/08/13 06:04:22;;;;;;;13.10;11.17;;;;;;;28.08;48.12;100381.16;5020801;28;20063;-87
2022/08/13 06:06:48;;;;;;;16.90;11.13;;;;;;;28.30;47.57;100389.03;5005327;28;20386;-88
2022/08/13 06:09:14;;;;;;;17.90;11.23;;;;;;;28.59;47.13;100391.09;5022892;28;20029;-86
2022/08/13 06:11:42;;;;;;;14.77;11.43;;;;;;;28.57;46.92;100382.28;5021527;28;20050;-87
2022/08/13 06:14:09;;;;;;;20.73;11.18;;;;;;;28.83;46.14;100386.47;5040145;28;20405;-88
2022/08/13 06:16:37;;;;;;;13.13;11.27;;;;;;;28.94;45.88;100380.84;4992685;28;20037;-88
2022/08/13 06:19:03;;;;;;;13.13;11.05;;;;;;;29.21;45.51;100392.25;5011278;28;20413;-86
2022/08/13 06:21:28;;;;;;;15.48;10.50;;;;;;;29.33;45.19;100385.50;5008626;28;20504;-86
2022/08/13 06:23:56;;;;;;;16.23;11.13;;;;;;;29.66;44.33;100381.81;5041390;28;20037;-85
2022/08/13 06:26:22;;;;;;;16.05;10.43;;;;;;;29.74;43.98;100388.66;5019311;28;20103;-86
2022/08/13 06:28:53;;;;;;;18.02;10.18;;;;;;;30.20;42.74;100387.22;5014681;28;20037;-86
2022/08/13 06:31:25;;;;;;;16.00;9.82;;;;;;;30.20;42.44;100373.34;5026650;28;20028;-87
2022/08/13 06:33:56;;;;;;;12.63;9.52;;;;;;;30.40;41.91;100377.81;5002383;28;20091;-86
2022/08/13 06:36:29;;;;;;;13.25;9.60;;;;;;;30.62;41.81;100383.53;5036862;28;20112;-86
2022/08/13 06:38:56;;;;;;;15.18;10.77;;;;;;;30.85;41.26;100386.56;5041634;28;20071;-88
2022/08/13 06:41:22;;;;;;;15.73;9.90;;;;;;;30.98;40.49;100376.63;5042694;28;20045;-90
2022/08/13 06:43:50;;;;;;;20.42;11.27;;;;;;;31.21;40.45;100381.19;5028205;28;20034;-87
2022/08/13 06:46:18;;;;;;;15.13;9.45;;;;;;;31.34;39.85;100372.03;5037769;28;20485;-86
2022/08/13 06:48:44;;;;;;;13.18;10.68;;;;;;;31.41;39.29;100365.31;5017027;28;20041;-87
2022/08/13 06:51:11;;;;;;;12.52;9.50;;;;;;;31.55;38.96;100374.47;5023133;28;20520;-87
2022/08/13 06:53:40;;;;;;;14.73;9.40;;;;;;;31.88;38.24;100371.56;5030800;28;20029;-84
2022/08/13 06:56:08;;;;;;;18.38;11.10;;;;;;;32.08;38.13;100360.03;5021732;28;20036;-85
2022/08/13 06:58:34;;;;;;;11.68;9.00;;;;;;;32.39;37.11;100371.25;5026969;28;20497;-86
2022/08/13 07:01:02;;;;;;;13.80;9.57;;;;;;;32.50;36.80;100371.00;5046082;28;20033;-83
2022/08/13 07:03:29;;;;;;;18.75;9.15;;;;;;;32.80;35.91;100366.66;5031682;28;20418;-84
2022/08/13 07:05:56;;;;;;;12.63;9.10;;;;;;;33.04;36.17;100371.06;5023691;28;20442;-84
2022/08/13 07:08:24;;;;;;;13.40;9.27;;;;;;;33.07;35.95;100371.28;5050392;28;20041;-86
2022/08/13 07:13:39;;;;;;;13.98;9.30;;;;;;;33.21;35.16;100377.59;5033941;28;20056;-83
2022/08/13 07:16:06;;;;;;;15.48;9.23;;;;;;;33.66;34.17;100361.91;5041730;28;20025;-86
2022/08/13 07:18:32;;;;;;;11.20;8.93;;;;;;;34.08;33.43;100363.13;5026270;28;20037;-83
2022/08/13 07:20:59;;;;;;;16.67;8.77;;;;;;;34.48;33.04;100355.44;5034103;28;20402;-86
2022/08/13 07:23:26;;;;;;;14.35;8.95;;;;;;;34.52;32.91;100357.59;5016325;28;20119;-86
2022/08/13 07:25:53;;;;;;;12.52;9.23;;;;;;;34.82;32.01;100364.16;5015551;28;20424;-87
2022/08/13 07:28:19;;;;;;;13.27;8.90;;;;;;;34.96;31.60;100342.44;5047030;28;20378;-84
2022/08/13 07:30:47;;;;;;;16.77;8.98;;;;;;;35.08;31.33;100336.97;5014166;28;20036;-85
2022/08/13 07:33:13;;;;;;;16.67;9.40;;;;;;;35.08;31.80;100352.91;4998527;28;20029;-86
2022/08/13 07:35:39;;;;;;;12.70;9.50;;;;;;;34.88;32.08;100358.03;5025396;28;20033;-85
2022/08/13 07:38:09;;;;;;;12.75;9.38;;;;;;;34.63;32.42;100359.75;5043046;28;20108;-90
2022/08/13 07:40:39;;;;;;;16.40;10.13;;;;;;;34.83;31.45;100349.84;5024653;28;20453;-89
2022/08/13 07:43:04;;;;;;;16.30;9.07;;;;;;;34.93;31.75;100365.41;5023709;28;20025;-87
2022/08/13 07:45:31;;;;;;;15.13;9.45;;;;;;;35.22;31.76;100361.13;5022226;28;20026;-87
2022/08/13 07:47:57;;;;;;;17.63;9.48;;;;;;;35.24;30.90;100358.81;5023396;28;20497;-86
2022/08/13 07:50:25;;;;;;;16.27;9.60;;;;;;;35.37;30.90;100362.53;5021741;28;20111;-89
2022/08/13 07:52:57;;;;;;;14.07;9.43;;;;;;;35.65;30.52;100363.72;5022685;28;20107;-84
2022/08/13 07:55:29;;;;;;;12.15;9.30;;;;;;;36.03;29.41;100336.81;5038269;28;20048;-89
2022/08/13 07:57:55;;;;;;;13.50;9.20;;;;;;;36.57;29.11;100353.69;5050727;28;20474;-86
2022/08/13 08:00:25;;;;;;;13.45;9.30;;;;;;;36.26;29.09;100343.75;5043164;28;20072;-85
2022/08/13 08:03:03;;;;;;;11.95;8.38;;;;;;;36.34;28.91;100326.06;5034478;28;20055;-88
2022/08/13 08:05:35;;;;;;;11.80;8.57;;;;;;;35.83;29.72;100347.66;5037894;28;20025;-85
2022/08/13 08:08:00;;;;;;;14.25;8.80;;;;;;;35.67;30.23;100333.44;5049082;28;20112;-85
2022/08/13 08:10:27;;;;;;;13.13;8.10;;;;;;;35.47;30.41;100346.22;5047637;28;20053;-85
2022/08/13 08:12:56;;;;;;;15.93;8.02;;;;;;;35.28;30.45;100343.00;5040637;28;20128;-86
2022/08/13 08:15:23;;;;;;;18.33;9.82;;;;;;;35.13;30.81;100329.59;5015381;28;20480;-85
2022/08/13 08:17:49;;;;;;;12.57;9.02;;;;;;;35.15;30.78;100322.50;5038162;28;20092;-84
2022/08/13 08:20:23;;;;;;;11.82;8.48;;;;;;;34.85;31.62;100322.41;5041474;28;20369;-88
2022/08/13 08:22:49;;;;;;;16.27;8.68;;;;;;;34.90;31.69;100324.22;5031016;28;20048;-85
2022/08/13 08:25:20;;;;;;;14.80;9.50;;;;;;;34.20;33.60;100321.47;5040511;28;20041;-86
2022/08/13 08:27:47;;;;;;;13.27;9.48;;;;;;;33.57;35.43;100326.44;5017880;28;20045;-87
2022/08/13 08:30:17;;;;;;;12.43;9.38;;;;;;;33.00;36.20;100324.38;5013737;28;20121;-87
2022/08/13 08:32:46;;;;;;;15.13;10.10;;;;;;;32.80;37.53;100311.00;5048447;28;20101;-85
2022/08/13 08:35:12;;;;;;;14.90;10.10;;;;;;;32.17;39.25;100326.72;5031072;28;20073;-89
2022/08/13 08:43:12;;;;;;;12.23;10.38;;;;;;;31.76;40.36;100308.97;5038205;28;20040;-89
2022/08/13 08:45:40;;;;;;;16.38;9.70;;;;;;;31.69;40.74;100297.47;5034123;28;20160;-89
2022/08/13 08:48:06;;;;;;;16.17;10.50;;;;;;;31.44;40.89;100307.16;5037314;28;20119;-88
2022/08/13 08:50:34;;;;;;;14.85;10.27;;;;;;;32.08;40.36;100293.28;5016177;28;20067;-89
2022/08/13 08:55:48;;;;;;;15.30;9.57;;;;;;;33.39;37.30;100294.91;5033113;28;20040;-88
2022/08/13 08:58:14;;;;;;;14.45;9.70;;;;;;;32.71;38.52;100282.28;5032562;28;20049;-88
2022/08/13 09:00:40;;;;;;;20.40;10.95;;;;;;;32.50;38.70;100282.84;5034966;28;20025;-86
2022/08/13 09:03:07;;;;;;;11.73;10.05;;;;;;;31.73;40.46;100270.72;5016633;28;20516;-85
2022/08/13 09:05:33;;;;;;;12.43;9.68;;;;;;;31.48;41.00;100285.16;5034428;28;20517;-87
2022/08/13 09:08:01;;;;;;;18.27;10.30;;;;;;;32.26;39.21;100282.28;5013769;28;20057;-86
2022/08/13 09:10:27;;;;;;;15.18;10.02;;;;;;;33.61;37.54;100288.44;5039947;28;20099;-85
2022/08/13 09:12:52;;;;;;;12.13;10.10;;;;;;;33.48;37.07;100271.81;5031528;28;20456;-87
2022/08/13 09:15:22;;;;;;;15.18;9.93;;;;;;;34.11;36.60;100266.84;5016870;28;20068;-86
2022/08/13 09:17:53;;;;;;;11.75;9.48;;;;;;;36.05;33.49;100261.78;5031267;28;20483;-87
2022/08/13 09:20:25;;;;;;;15.02;9.18;;;;;;;35.84;32.70;100265.41;5037428;28;20045;-87
2022/08/13 09:23:00;;;;;;;15.18;9.80;;;;;;;35.08;34.03;100271.91;5032535;28;20037;-89
2022/08/13 09:25:26;;;;;;;21.98;10.00;;;;;;;35.71;33.42;100260.91;5035489;28;20025;-86
2022/08/13 09:27:54;;;;;;;15.82;9.82;;;;;;;36.26;32.38;100248.59;4997171;28;20385;-85
2022/08/13 09:30:23;;;;;;;13.98;9.88;;;;;;;35.05;34.56;100266.97;5010943;28;20060;-86
2022/08/13 09:32:49;;;;;;;13.55;9.43;;;;;;;34.19;35.45;100264.06;5045350;28;20029;-89
2022/08/13 09:35:17;;;;;;;15.35;9.68;;;;;;;33.37;37.78;100244.28;5024226;28;20045;-89
2022/08/13 09:37:42;;;;;;;15.25;9.70;;;;;;;33.18;38.50;100263.22;5055721;28;20064;-88
2022/08/13 09:40:11;;;;;;;16.63;10.15;;;;;;;35.28;34.18;100256.38;5044454;28;20029;-87
2022/08/13 09:42:46;;;;;;;22.08;10.10;;;;;;;36.30;32.82;100255.16;5024256;28;20033;-90
2022/08/13 09:45:14;;;;;;;13.43;9.55;;;;;;;37.83;30.05;100246.63;5033374;28;20069;-88
2022/08/13 09:47:44;;;;;;;16.05;9.30;;;;;;;36.50;31.56;100238.66;5037186;28;20022;-87
2022/08/13 09:50:10;;;;;;;12.75;9.07;;;;;;;33.94;35.74;100250.91;5021416;28;20029;-91
2022/08/13 09:52:37;;;;;;;16.90;9.85;;;;;;;34.84;34.80;100253.78;5027858;28;20044;-89
2022/08/13 09:55:05;;;;;;;15.57;9.60;;;;;;;36.40;32.78;100248.31;5025467;28;20437;-86
2022/08/13 09:57:30;;;;;;;16.73;9.27;;;;;;;38.13;29.60;100249.13;5034930;28;20040;-87
2022/08/13 09:59:56;;;;;;;13.18;9.23;;;;;;;39.06;28.17;100251.66;5040491;28;20033;-89
2022/08/13 10:02:22;;;;;;;11.88;8.52;;;;;;;38.27;28.82;100249.53;5041112;28;20041;-87
2022/08/13 10:04:52;;;;;;;11.50;9.10;;;;;;;38.33;29.04;100247.25;5031579;28;20036;-88
2022/08/13 10:07:19;;;;;;;12.25;9.18;;;;;;;39.74;27.27;100241.19;5031793;28;20025;-85
2022/08/13 10:09:50;;;;;;;12.07;9.25;;;;;;;39.86;27.64;100232.63;5027617;28;20414;-86
2022/08/13 10:12:18;;;;;;;14.68;9.10;;;;;;;40.70;26.75;100236.69;5019685;28;20156;-86
2022/08/13 10:14:44;;;;;;;12.40;8.95;;;;;;;40.44;26.04;100235.41;5022782;28;20492;-86
2022/08/13 10:17:11;;;;;;;12.82;8.85;;;;;;;38.56;27.86;100231.47;5007158;28;20076;-86
2022/08/13 10:19:36;;;;;;;12.68;8.70;;;;;;;36.46;32.25;100220.94;5036311;28;20116;-83
2022/08/13 10:22:02;;;;;;;10.88;9.07;;;;;;;35.05;34.79;100225.06;5025415;28;20041;-87
2022/08/13 10:24:30;;;;;;;14.85;9.63;;;;;;;33.77;36.43;100229.44;5032521;28;20052;-89
2022/08/13 10:26:55;;;;;;;13.07;9.80;;;;;;;34.89;35.60;100234.03;5052490;28;20033;-86
2022/08/13 10:29:23;;;;;;;15.25;9.90;;;;;;;37.28;31.29;100225.72;5038425;28;20037;-90
2022/08/13 10:31:50;;;;;;;13.05;9.10;;;;;;;37.77;28.72;100225.63;5015889;28;20148;-86
2022/08/13 10:34:19;;;;;;;13.15;9.07;;;;;;;38.39;27.79;100229.81;5036549;28;20498;-86
2022/08/13 10:36:46;;;;;;;14.38;8.82;;;;;;;38.49;27.71;100230.47;5013355;28;20140;-87
2022/08/13 10:39:11;;;;;;;18.20;8.88;;;;;;;37.23;29.01;100217.50;5036687;28;20048;-87
2022/08/13 10:41:37;;;;;;;13.18;9.10;;;;;;;38.22;27.81;100221.72;5040137;28;20426;-87
2022/08/13 10:44:03;;;;;;;15.65;8.93;;;;;;;38.04;28.11;100200.75;5021013;28;20074;-87
2022/08/13 10:46:31;;;;;;;13.85;8.70;;;;;;;37.73;28.65;100199.47;5036628;28;20492;-88
2022/08/13 10:48:58;;;;;;;12.43;9.02;;;;;;;35.21;32.69;100236.53;5024205;28;20094;-87
2022/08/13 10:51:23;;;;;;;11.57;9.70;;;;;;;33.76;35.96;100225.84;5026911;28;20025;-88
2022/08/13 10:53:55;;;;;;;16.02;9.82;;;;;;;35.42;33.36;100223.41;5005421;28;20148;-86
2022/08/13 10:56:21;;;;;;;15.15;9.23;;;;;;;34.38;34.30;100221.84;5042374;28;20021;-87
2022/08/13 10:58:47;;;;;;;15.18;9.50;;;;;;;34.18;35.84;100223.34;5044231;28;20036;-87
2022/08/13 11:01:12;;;;;;;11.85;9.68;;;;;;;34.96;35.08;100208.38;5016875;28;20425;-89
2022/08/13 11:03:38;;;;;;;13.27;9.93;;;;;;;35.76;33.98;100204.78;5020447;28;20037;-87
2022/08/13 11:06:06;;;;;;;13.35;9.85;;;;;;;35.70;34.07;100209.75;5036393;28;20044;-88
2022/08/13 11:08:37;;;;;;;16.15;10.65;;;;;;;35.55;34.70;100206.75;5034031;28;20080;-87
2022/08/13 11:11:11;;;;;;;12.88;9.50;;;;;;;35.38;34.25;100214.09;5041165;28;20466;-87
2022/08/13 11:13:37;;;;;;;16.73;9.68;;;;;;;34.37;35.36;100224.97;5031037;28;20052;-88
2022/08/13 11:16:06;;;;;;;12.50;9.68;;;;;;;34.72;35.27;100196.97;5044723;28;20037;-88
2022/08/13 11:18:32;;;;;;;15.30;10.02;;;;;;;34.33;36.58;100212.84;5032844;28;20100;-88
2022/08/13 11:21:06;;;;;;;16.17;9.80;;;;;;;34.34;36.52;100194.94;5015309;28;20033;-88
2022/08/13 11:23:32;;;;;;;18.48;10.38;;;;;;;34.41;37.28;100206.41;5033513;28;20031;-88
2022/08/13 11:25:58;;;;;;;13.63;9.88;;;;;;;33.81;38.41;100206.16;5019459;28;20043;-89
2022/08/13 11:28:23;;;;;;;13.57;10.32;;;;;;;33.12;40.24;100211.59;5015887;28;20088;-86
2022/08/13 11:30:50;;;;;;;15.70;10.23;;;;;;;32.67;41.32;100203.38;5027415;28;20033;-88
2022/08/13 11:33:16;;;;;;;13.38;10.70;;;;;;;33.05;40.49;100216.81;5004325;28;20030;-88
2022/08/13 11:35:43;;;;;;;15.27;10.45;;;;;;;32.59;41.33;100204.97;5034834;28;20120;-87
2022/08/13 11:38:09;;;;;;;13.43;9.98;;;;;;;32.46;42.34;100195.56;5029437;28;20046;-87